Bangor, ME

5:59 PM EST on February 05, 2016 (GMT -0500)
Essex St Hill | | Change Station
CLOSE
Current Station
Personal Weather Station
Location: Bangor, ME
Elevation: 208 ft
Nearby Weather Stations

Elev 208 ft 44.82 °N, 68.77 °W | Updated 20 seconds ago

Snow
Snow
25.8 °F
Feels Like 21 °F
N
4.0
Wind Variable Wind from NNW
Gusts 9.0 mph

Today
High -- | Low -- °F
--% Chance of Precip.
Yesterday
High -- | Low -- °F
Precip. -- in
Pressure 29.99 in
Visibility 0.8 miles
Clouds
Windchill 21 °F
Dew Point 23 °F
Humidity 90%
Rainfall 0.00 in
Snow Depth Not available.
6:50 AM 4:48 PM
Waning Crescent, 9% visible
METAR KBGR 052253Z COR 36015KT 3/4SM R15/5000VP6000FT -SN FZFG VV010 M03/M04 A2998 RMK AO2 PRESRR SLP153 SNINCR 1/10 P0001 T10281039 $
Pressure 29.99 in
Visibility 0.8 miles
Clouds
Windchill 21 °F
Dew Point 23 °F
Humidity 90%
Rainfall 0.00 in
Snow Depth Not available.
6:50 AM 4:48 PM
Waning Crescent, 9% visible
METAR KBGR 052253Z COR 36015KT 3/4SM R15/5000VP6000FT -SN FZFG VV010 M03/M04 A2998 RMK AO2 PRESRR SLP153 SNINCR 1/10 P0001 T10281039 $

10-Day Weather Forecast

Almanac

Astronomy

Feb. 05, 2016 Rise Set
Actual Time
Civil Twilight
Nautical Twilight
Astronomical Twilight
Moon
Length of Visible Light
Length of Day
Tomorrow will be .
, % of the Moon is Illuminated

Today's Extremes

State Highs State Lows

Community

WunderPhotos

Upload Photos

1,890,875 photos uploaded!

WunderBlog® & News

Nearby

Air Quality

  Air Quality AQ Index Pollutant
Not available.

Snow Depth

Station Depth Elevation

Earthquake Activity

City Distance Mag. Time & Date
Minimum magnitude displayed is 2.5.

Coastal Water Temperatures

Place Temperature

Stations

Nearby Weather Stations

Station Location Temp. Windchill Dew Point Humidity Wind Precip. Elev Updated Type
                   

Watches & Warnings

Winter Storm Warning
Issued: 4:20 PM EST Feb. 5, 2016 – National Weather Service

... Winter Storm Warning remains in effect until 7 PM EST this
evening...

* locations... southern Penobscot County including the greater
Bangor region.

* Snow accumulations... 5 to 9 inches.

* Hazard types... snow and blowing snow.

* Timing... through early this evening.

* Impacts... snowfall will result in some travel difficulties
with roads snow covered and slippery.

* Winds... north 10 to 20 mph with gusts up to 25 mph.

* Temperatures... upper 20s to around 30.

* Visibilities... a half mile or less at times.

Precautionary/preparedness actions...

A Winter Storm Warning means significant amounts of snow are
expected or occurring. This will make travel hazardous.